createdAt,value
2024-03-04T00:00:51.821Z,93823.00
2024-03-04T00:01:51.940Z,93826.00
2024-03-04T00:02:51.912Z,93828.00
2024-03-04T00:03:51.944Z,93830.00
2024-03-04T00:04:52.026Z,93829.00
2024-03-04T00:05:52.091Z,93829.00
2024-03-04T00:06:52.093Z,93827.00
2024-03-04T00:07:52.216Z,93829.00
2024-03-04T00:08:52.232Z,93830.00
2024-03-04T00:09:52.330Z,93832.00
2024-03-04T00:10:52.388Z,93834.00
2024-03-04T00:11:52.392Z,93836.00
2024-03-04T00:12:52.501Z,93836.00
2024-03-04T00:13:52.562Z,93837.00
2024-03-04T00:14:52.589Z,93833.00
2024-03-04T00:15:52.655Z,93831.00
2024-03-04T00:16:52.712Z,93831.00
2024-03-04T00:17:52.797Z,93834.00
2024-03-04T00:18:52.871Z,93836.00
2024-03-04T00:19:52.836Z,93837.00
2024-03-04T00:20:52.900Z,93843.00
2024-03-04T00:21:53.129Z,93837.00
2024-03-04T00:22:53.019Z,93838.00
2024-03-04T00:23:53.086Z,93842.00
2024-03-04T00:24:53.148Z,93847.00
2024-03-04T00:25:53.178Z,93846.00
2024-03-04T00:26:53.343Z,93847.00
2024-03-04T00:27:53.344Z,93848.00
2024-03-04T00:28:53.367Z,93847.00
2024-03-04T00:29:53.425Z,93848.00
2024-03-04T00:30:53.539Z,93851.00
2024-03-04T00:31:53.521Z,93848.00
2024-03-04T00:32:53.579Z,93849.00
2024-03-04T00:33:53.657Z,93851.00
2024-03-04T00:34:53.698Z,93851.00
2024-03-04T00:35:53.763Z,93852.00
2024-03-04T00:36:53.917Z,93853.00
2024-03-04T00:37:53.896Z,93852.00
2024-03-04T00:38:53.888Z,93851.00
2024-03-04T00:39:54.051Z,93850.00
2024-03-04T00:40:54.050Z,93849.00
2024-03-04T00:41:54.084Z,93853.00
2024-03-04T00:42:54.234Z,93852.00
2024-03-04T00:43:54.201Z,93851.00
2024-03-04T00:44:54.292Z,93853.00
2024-03-04T00:45:54.356Z,93855.00
2024-03-04T00:46:54.369Z,93858.00
2024-03-04T00:47:54.487Z,93858.00
2024-03-04T00:48:54.505Z,93855.00
2024-03-04T00:49:54.547Z,93856.00
2024-03-04T00:50:54.596Z,93847.00
2024-03-04T00:51:54.717Z,93846.00
2024-03-04T00:52:54.698Z,93848.00
2024-03-04T00:53:54.762Z,93849.00
2024-03-04T00:54:54.893Z,93845.00
2024-03-04T00:55:54.903Z,93842.00
2024-03-04T00:56:54.946Z,93845.00
2024-03-04T00:57:55.063Z,93844.00
2024-03-04T00:58:55.050Z,93846.00
2024-03-04T00:59:55.156Z,93849.00
2024-03-04T01:00:55.270Z,93848.00
2024-03-04T01:01:55.281Z,93848.00
2024-03-04T01:02:55.328Z,93847.00
2024-03-04T01:03:55.424Z,93845.00
2024-03-04T01:04:55.467Z,93851.00
2024-03-04T01:05:55.511Z,93856.00
2024-03-04T01:06:55.592Z,93860.00
2024-03-04T01:07:55.591Z,93856.00
2024-03-04T01:08:55.698Z,93856.00
2024-03-04T01:09:55.781Z,93862.00
2024-03-04T01:10:55.818Z,93868.00
2024-03-04T01:11:55.834Z,93863.00
2024-03-04T01:12:55.890Z,93855.00
2024-03-04T01:13:55.952Z,93852.00
2024-03-04T01:14:56.010Z,93854.00
2024-03-04T01:15:56.086Z,93858.00
2024-03-04T01:16:56.129Z,93864.00
2024-03-04T01:17:56.180Z,93860.00
2024-03-04T01:18:56.238Z,93858.00
2024-03-04T01:19:56.273Z,93854.00
2024-03-04T01:20:56.402Z,93854.00
2024-03-04T01:21:56.428Z,93855.00
2024-03-04T01:22:56.479Z,93851.00
2024-03-04T01:23:56.517Z,93863.00
2024-03-04T01:24:56.603Z,93865.00
2024-03-04T01:25:56.645Z,93863.00
2024-03-04T01:26:56.719Z,93860.00
2024-03-04T01:27:56.776Z,93856.00
2024-03-04T01:28:56.797Z,93852.00
2024-03-04T01:29:56.870Z,93845.00
2024-03-04T01:30:57.115Z,93848.00
2024-03-04T01:31:57.000Z,93853.00
2024-03-04T01:32:57.068Z,93854.00
2024-03-04T01:33:57.199Z,93849.00
2024-03-04T01:34:57.203Z,93851.00
2024-03-04T01:35:57.223Z,93853.00
2024-03-04T01:36:57.309Z,93854.00
2024-03-04T01:37:57.315Z,93858.00
2024-03-04T01:38:57.356Z,93857.00
2024-03-04T01:39:57.450Z,93860.00
2024-03-04T01:40:57.524Z,93864.00
2024-03-04T01:41:57.537Z,93869.00
2024-03-04T01:42:57.629Z,93867.00
2024-03-04T01:43:57.664Z,93868.00
2024-03-04T01:44:57.736Z,93866.00
2024-03-04T01:45:57.791Z,93870.00
2024-03-04T01:46:57.858Z,93870.00
2024-03-04T01:47:57.950Z,93874.00
2024-03-04T01:48:58.024Z,93874.00
2024-03-04T01:49:58.040Z,93869.00
2024-03-04T01:50:58.093Z,93869.00
2024-03-04T01:51:58.187Z,93868.00
2024-03-04T01:52:58.259Z,93865.00
2024-03-04T01:53:58.310Z,93860.00
2024-03-04T01:54:58.510Z,93861.00
2024-03-04T01:55:58.432Z,93858.00
2024-03-04T01:56:58.491Z,93860.00
2024-03-04T01:57:58.569Z,93861.00
2024-03-04T01:58:58.608Z,93868.00
2024-03-04T01:59:58.680Z,93871.00
2024-03-04T02:00:58.816Z,93872.00
2024-03-04T02:01:58.846Z,93871.00
2024-03-04T02:02:58.891Z,93873.00
2024-03-04T02:03:58.947Z,93875.00
2024-03-04T02:04:58.974Z,93874.00
2024-03-04T02:05:59.079Z,93874.00
2024-03-04T02:06:59.132Z,93873.00
2024-03-04T02:07:59.156Z,93877.00
2024-03-04T02:08:59.230Z,93875.00
2024-03-04T02:09:59.429Z,93879.00
2024-03-04T02:10:59.431Z,93881.00
2024-03-04T02:11:59.452Z,93884.00
2024-03-04T02:12:59.560Z,93883.00
2024-03-04T02:13:59.579Z,93885.00
2024-03-04T02:14:59.630Z,93886.00
2024-03-04T02:15:59.734Z,93885.00
2024-03-04T02:16:59.769Z,93886.00
2024-03-04T02:17:59.839Z,93889.00
2024-03-04T02:18:59.907Z,93892.00
2024-03-04T02:19:59.990Z,93898.00
2024-03-04T02:21:00.038Z,93898.00
2024-03-04T02:22:00.134Z,93904.00
2024-03-04T02:23:00.205Z,93907.00
2024-03-04T02:24:00.259Z,93911.00
2024-03-04T02:25:00.340Z,93914.00
2024-03-04T02:26:00.338Z,93913.00
2024-03-04T02:27:00.430Z,93914.00
2024-03-04T02:28:00.579Z,93914.00
2024-03-04T02:29:00.606Z,93914.00
2024-03-04T02:30:00.708Z,93914.00
2024-03-04T02:31:00.823Z,93915.00
2024-03-04T02:32:00.763Z,93911.00
2024-03-04T02:33:00.948Z,93912.00
2024-03-04T02:34:00.898Z,93911.00
2024-03-04T02:35:00.994Z,93911.00
2024-03-04T02:36:01.027Z,93912.00
2024-03-04T02:37:01.111Z,93911.00
2024-03-04T02:38:01.207Z,93912.00
2024-03-04T02:39:01.213Z,93912.00
2024-03-04T02:40:01.308Z,93916.00
2024-03-04T02:41:01.411Z,93915.00
2024-03-04T02:42:01.435Z,93914.00
2024-03-04T02:43:01.539Z,93911.00
2024-03-04T02:44:01.571Z,93909.00
2024-03-04T02:45:01.675Z,93907.00
2024-03-04T02:46:01.742Z,93904.00
2024-03-04T02:47:01.778Z,93904.00
2024-03-04T02:48:01.846Z,93899.00
2024-03-04T02:49:01.929Z,93900.00
2024-03-04T02:50:02.006Z,93899.00
2024-03-04T02:51:02.085Z,93900.00
2024-03-04T02:52:02.550Z,93904.00
2024-03-04T02:53:02.226Z,93907.00
2024-03-04T02:54:02.240Z,93908.00
2024-03-04T02:55:02.373Z,93911.00
2024-03-04T02:56:02.378Z,93904.00
2024-03-04T02:57:02.467Z,93903.00
2024-03-04T02:58:02.582Z,93902.00
2024-03-04T02:59:02.590Z,93899.00
2024-03-04T03:00:02.714Z,93900.00
2024-03-04T03:01:02.853Z,93902.00
2024-03-04T03:02:02.887Z,93903.00
2024-03-04T03:03:02.861Z,93904.00
2024-03-04T03:04:03.034Z,93910.00
2024-03-04T03:05:03.029Z,93913.00
2024-03-04T03:06:03.063Z,93915.00
2024-03-04T03:07:03.139Z,93914.00
2024-03-04T03:08:03.224Z,93914.00
2024-03-04T03:09:03.281Z,93920.00
2024-03-04T03:10:03.434Z,93915.00
2024-03-04T03:11:03.436Z,93915.00
2024-03-04T03:12:03.451Z,93918.00
2024-03-04T03:13:03.604Z,93916.00
2024-03-04T03:14:03.597Z,93917.00
2024-03-04T03:15:03.700Z,93919.00
2024-03-04T03:16:03.751Z,93922.00
2024-03-04T03:17:03.817Z,93926.00
2024-03-04T03:18:03.850Z,93927.00
2024-03-04T03:19:04.069Z,93929.00
2024-03-04T03:20:03.961Z,93930.00
2024-03-04T03:21:04.052Z,93933.00
2024-03-04T03:22:04.142Z,93933.00
2024-03-04T03:23:04.163Z,93937.00
2024-03-04T03:24:04.230Z,93936.00
2024-03-04T03:25:04.306Z,93938.00
2024-03-04T03:26:04.396Z,93940.00
2024-03-04T03:27:04.465Z,93941.00
2024-03-04T03:28:04.553Z,93942.00
2024-03-04T03:29:04.560Z,93946.00
2024-03-04T03:30:04.648Z,93951.00
2024-03-04T03:31:04.728Z,93953.00
2024-03-04T03:32:04.771Z,93952.00
2024-03-04T03:33:04.930Z,93952.00
2024-03-04T03:34:04.882Z,93954.00
2024-03-04T03:35:04.976Z,93954.00
2024-03-04T03:36:05.034Z,93957.00
2024-03-04T03:37:05.132Z,93960.00
2024-03-04T03:38:05.196Z,93963.00
2024-03-04T03:39:05.253Z,93967.00
2024-03-04T03:40:05.432Z,93967.00
2024-03-04T03:41:05.419Z,93970.00
2024-03-04T03:42:05.461Z,93971.00
2024-03-04T03:43:05.578Z,93975.00
2024-03-04T03:44:05.588Z,93975.00
2024-03-04T03:45:05.631Z,93975.00
2024-03-04T03:46:05.762Z,93975.00
2024-03-04T03:47:05.800Z,93978.00
2024-03-04T03:48:05.909Z,93980.00
2024-03-04T03:49:05.944Z,93979.00
2024-03-04T03:50:05.948Z,93980.00
2024-03-04T03:51:06.020Z,93978.00
2024-03-04T03:52:06.025Z,93980.00
2024-03-04T03:53:06.039Z,93979.00
2024-03-04T03:54:06.138Z,93981.00
2024-03-04T03:55:06.242Z,93981.00
2024-03-04T03:56:06.198Z,93979.00
2024-03-04T03:57:06.245Z,93981.00
2024-03-04T03:58:06.355Z,93984.00
2024-03-04T03:59:06.352Z,93983.00
2024-03-04T04:00:06.471Z,93985.00
2024-03-04T04:01:06.690Z,93988.00
2024-03-04T04:02:06.610Z,93988.00
2024-03-04T04:03:06.561Z,93992.00
2024-03-04T04:04:06.674Z,93993.00
2024-03-04T04:05:06.633Z,93993.00
2024-03-04T04:06:06.727Z,93994.00
2024-03-04T04:07:06.800Z,93995.00
2024-03-04T04:08:06.834Z,93995.00
2024-03-04T04:09:06.902Z,93996.00
2024-03-04T04:10:06.928Z,93997.00
2024-03-04T04:11:06.940Z,93997.00
2024-03-04T04:12:07.019Z,93997.00
2024-03-04T04:13:07.052Z,93998.00
2024-03-04T04:14:07.062Z,94003.00
2024-03-04T04:15:07.096Z,94003.00
2024-03-04T04:16:07.141Z,94004.00
2024-03-04T04:17:07.146Z,94007.00
2024-03-04T04:18:07.206Z,94005.00
2024-03-04T04:19:07.247Z,94008.00
2024-03-04T04:20:07.251Z,94009.00
2024-03-04T04:21:07.209Z,94008.00
2024-03-04T04:22:07.247Z,94008.00
2024-03-04T04:23:07.224Z,94007.00
2024-03-04T04:24:07.246Z,94007.00
2024-03-04T04:25:14.446Z,94007.00
2024-03-04T04:26:14.386Z,94005.00
2024-03-04T04:27:14.389Z,94005.00
2024-03-04T04:28:14.403Z,94007.00
2024-03-04T04:29:14.409Z,94006.00
2024-03-04T04:30:14.381Z,94008.00
2024-03-04T04:31:21.552Z,94013.00
2024-03-04T04:32:21.558Z,94012.00
2024-03-04T04:33:21.533Z,94013.00
2024-03-04T04:34:21.652Z,94013.00
2024-03-04T04:35:21.540Z,94016.00
2024-03-04T04:36:21.561Z,94013.00
2024-03-04T04:37:21.586Z,94017.00
2024-03-04T04:38:21.565Z,94016.00
2024-03-04T04:39:21.533Z,94016.00
2024-03-04T04:40:21.709Z,94015.00
2024-03-04T04:41:21.547Z,94014.00
2024-03-04T04:42:21.547Z,94015.00
2024-03-04T04:43:21.614Z,94016.00
2024-03-04T04:44:21.564Z,94015.00
2024-03-04T04:45:21.564Z,94015.00
2024-03-04T04:46:21.748Z,94016.00
2024-03-04T04:47:21.565Z,94016.00
2024-03-04T04:48:21.582Z,94017.00
2024-03-04T04:49:21.562Z,94018.00
2024-03-04T04:50:21.559Z,94019.00
2024-03-04T04:51:21.600Z,94018.00
2024-03-04T04:52:21.589Z,94021.00
2024-03-04T04:53:21.564Z,94022.00
2024-03-04T04:54:21.572Z,94021.00
2024-03-04T04:55:21.619Z,94024.00
2024-03-04T04:56:21.586Z,94024.00
2024-03-04T04:57:21.608Z,94026.00
2024-03-04T04:58:21.634Z,94025.00
2024-03-04T04:59:21.556Z,94026.00
2024-03-04T05:00:21.576Z,94027.00
2024-03-04T05:01:21.645Z,94028.00
2024-03-04T05:02:21.582Z,94028.00
2024-03-04T05:03:33.715Z,94030.00
2024-03-04T05:04:38.111Z,94030.00
2024-03-04T05:05:22.677Z,94031.00
2024-03-04T05:06:21.609Z,94032.00
2024-03-04T05:07:21.640Z,94029.00
2024-03-04T05:08:21.588Z,94028.00
2024-03-04T05:09:21.620Z,94031.00
2024-03-04T05:10:21.648Z,94029.00
2024-03-04T05:11:21.645Z,94029.00
2024-03-04T05:12:21.659Z,94030.00
2024-03-04T05:13:21.633Z,94029.00
2024-03-04T05:14:21.592Z,94031.00
2024-03-04T05:15:21.634Z,94031.00
2024-03-04T05:16:21.632Z,94029.00
2024-03-04T05:17:21.611Z,94032.00
2024-03-04T05:18:21.614Z,94033.00
2024-03-04T05:19:21.601Z,94032.00
2024-03-04T05:20:21.647Z,94033.00
2024-03-04T05:21:21.621Z,94035.00
2024-03-04T05:22:21.664Z,94036.00
2024-03-04T05:23:21.620Z,94036.00
2024-03-04T05:24:21.614Z,94039.00
2024-03-04T05:25:21.648Z,94041.00
2024-03-04T05:26:21.622Z,94043.00
2024-03-04T05:27:21.774Z,94048.00
2024-03-04T05:28:21.657Z,94051.00
2024-03-04T05:29:21.654Z,94053.00
2024-03-04T05:30:21.634Z,94054.00
2024-03-04T05:31:21.687Z,94058.00
2024-03-04T05:32:21.637Z,94061.00
2024-03-04T05:33:21.787Z,94061.00
2024-03-04T05:34:21.680Z,94063.00
2024-03-04T05:35:21.676Z,94060.00
2024-03-04T05:36:21.614Z,94061.00
2024-03-04T05:37:21.707Z,94059.00
2024-03-04T05:38:21.653Z,94060.00
2024-03-04T05:39:21.662Z,94061.00
2024-03-04T05:40:21.711Z,94062.00
2024-03-04T05:41:21.668Z,94065.00
2024-03-04T05:42:21.622Z,94067.00
2024-03-04T05:43:21.679Z,94071.00
2024-03-04T05:44:21.831Z,94070.00
2024-03-04T05:45:21.666Z,94074.00
2024-03-04T05:46:21.736Z,94076.00
2024-03-04T05:47:21.718Z,94076.00
2024-03-04T05:48:21.642Z,94077.00
2024-03-04T05:49:21.708Z,94074.00
2024-03-04T05:50:21.693Z,94074.00
2024-03-04T05:51:21.687Z,94072.00
2024-03-04T05:52:21.766Z,94070.00
2024-03-04T05:53:21.663Z,94073.00
2024-03-04T05:54:21.663Z,94073.00
2024-03-04T05:55:21.739Z,94077.00
2024-03-04T05:56:21.661Z,94078.00
2024-03-04T05:57:21.673Z,94081.00
2024-03-04T05:58:21.746Z,94083.00
2024-03-04T05:59:21.652Z,94085.00
2024-03-04T06:00:21.665Z,94085.00
2024-03-04T06:01:21.711Z,94088.00
2024-03-04T06:02:21.661Z,94088.00
2024-03-04T06:03:21.721Z,94089.00
2024-03-04T06:04:21.765Z,94094.00
2024-03-04T06:05:21.681Z,94094.00
2024-03-04T06:06:21.693Z,94094.00
2024-03-04T06:07:21.748Z,94100.00
2024-03-04T06:08:21.673Z,94098.00
2024-03-04T06:09:21.681Z,94100.00
2024-03-04T06:10:21.821Z,94100.00
2024-03-04T06:11:21.724Z,94101.00
2024-03-04T06:12:21.705Z,94101.00
2024-03-04T06:13:21.753Z,94101.00
2024-03-04T06:14:21.690Z,94099.00
2024-03-04T06:15:21.682Z,94100.00
2024-03-04T06:16:21.746Z,94096.00
2024-03-04T06:17:21.704Z,94097.00
2024-03-04T06:18:21.699Z,94095.00
2024-03-04T06:19:21.739Z,94095.00
2024-03-04T06:20:21.721Z,94098.00
2024-03-04T06:21:21.696Z,94098.00
2024-03-04T06:22:21.710Z,94098.00
2024-03-04T06:23:21.705Z,94098.00
2024-03-04T06:24:21.704Z,94101.00
2024-03-04T06:25:21.709Z,94103.00
2024-03-04T06:26:21.734Z,94105.00
2024-03-04T06:27:21.700Z,94106.00
2024-03-04T06:28:24.213Z,94105.00
2024-03-04T06:29:21.819Z,94107.00
2024-03-04T06:30:21.853Z,94108.00
2024-03-04T06:31:21.887Z,94109.00
2024-03-04T06:32:21.835Z,94110.00
2024-03-04T06:33:22.657Z,94110.00
2024-03-04T06:34:24.537Z,94109.00
2024-03-04T06:35:21.889Z,94117.00
2024-03-04T06:36:22.526Z,94118.00
2024-03-04T06:37:21.914Z,94116.00
2024-03-04T06:38:21.875Z,94120.00
2024-03-04T06:39:21.888Z,94123.00
2024-03-04T06:40:21.979Z,94118.00
2024-03-04T06:41:21.905Z,94128.00
2024-03-04T06:42:21.877Z,94125.00
2024-03-04T06:43:21.926Z,94128.00
2024-03-04T06:44:21.882Z,94133.00
2024-03-04T06:45:23.793Z,94131.00
2024-03-04T06:46:21.970Z,94130.00
2024-03-04T06:47:21.909Z,94133.00
2024-03-04T06:48:21.898Z,94134.00
2024-03-04T06:49:21.953Z,94137.00
2024-03-04T06:50:21.905Z,94138.00
2024-03-04T06:51:21.905Z,94137.00
2024-03-04T06:52:21.926Z,94137.00
2024-03-04T06:53:21.900Z,94135.00
2024-03-04T06:54:21.899Z,94136.00
2024-03-04T06:55:21.945Z,94137.00
2024-03-04T06:56:21.881Z,94136.00
2024-03-04T06:57:21.868Z,94138.00
2024-03-04T06:58:21.914Z,94138.00
2024-03-04T06:59:21.944Z,94136.00
2024-03-04T07:00:21.954Z,94136.00
2024-03-04T07:01:21.986Z,94137.00
2024-03-04T07:02:21.982Z,94137.00
2024-03-04T07:03:21.941Z,94133.00
2024-03-04T07:04:22.012Z,94137.00
2024-03-04T07:05:21.910Z,94134.00
2024-03-04T07:06:21.962Z,94136.00
2024-03-04T07:07:21.997Z,94135.00
2024-03-04T07:08:21.909Z,94135.00
2024-03-04T07:09:21.923Z,94137.00
2024-03-04T07:10:21.957Z,94137.00
2024-03-04T07:11:21.955Z,94138.00
2024-03-04T07:12:21.955Z,94139.00
2024-03-04T07:13:21.972Z,94141.00
2024-03-04T07:14:21.928Z,94143.00
2024-03-04T07:15:21.908Z,94144.00
2024-03-04T07:16:21.981Z,94145.00
2024-03-04T07:17:21.907Z,94145.00
2024-03-04T07:18:21.952Z,94148.00
2024-03-04T07:19:21.975Z,94150.00
2024-03-04T07:20:21.949Z,94151.00
2024-03-04T07:21:21.911Z,94153.00
2024-03-04T07:22:21.943Z,94154.00
2024-03-04T07:23:21.922Z,94156.00
2024-03-04T07:24:21.934Z,94156.00
2024-03-04T07:25:21.995Z,94159.00
2024-03-04T07:26:21.975Z,94158.00
2024-03-04T07:27:21.978Z,94160.00
2024-03-04T07:28:22.009Z,94161.00
2024-03-04T07:29:27.343Z,94160.00
2024-03-04T07:30:23.076Z,94160.00
2024-03-04T07:31:22.189Z,94162.00
2024-03-04T07:32:22.242Z,94162.00
2024-03-04T07:33:22.276Z,94161.00
2024-03-04T07:34:22.370Z,94159.00
2024-03-04T07:35:22.387Z,94160.00
2024-03-04T07:36:22.400Z,94159.00
2024-03-04T07:37:22.414Z,94161.00
2024-03-04T07:38:22.424Z,94159.00
2024-03-04T07:39:22.421Z,94156.00
2024-03-04T07:40:22.521Z,94158.00
2024-03-04T07:41:22.528Z,94159.00
2024-03-04T07:42:22.539Z,94159.00
2024-03-04T07:43:22.610Z,94161.00
2024-03-04T07:44:22.684Z,94159.00
2024-03-04T07:45:22.748Z,94154.00
2024-03-04T07:46:22.860Z,94157.00
2024-03-04T07:47:22.898Z,94160.00
2024-03-04T07:48:22.853Z,94163.00
2024-03-04T07:49:22.961Z,94159.00
2024-03-04T07:50:22.929Z,94159.00
2024-03-04T07:51:22.916Z,94162.00
2024-03-04T07:52:22.914Z,94168.00
2024-03-04T07:53:22.931Z,94167.00
2024-03-04T07:54:22.952Z,94169.00
2024-03-04T07:55:23.931Z,94169.00
2024-03-04T07:56:22.979Z,94169.00
2024-03-04T07:57:24.548Z,94170.00
2024-03-04T07:58:23.155Z,94169.00
2024-03-04T07:59:23.174Z,94168.00
2024-03-04T08:00:23.324Z,94169.00
2024-03-04T08:01:23.403Z,94166.00
2024-03-04T08:02:23.377Z,94164.00
2024-03-04T08:03:23.460Z,94166.00
2024-03-04T08:04:23.568Z,94166.00
2024-03-04T08:05:23.586Z,94168.00
2024-03-04T08:06:23.637Z,94166.00
2024-03-04T08:07:23.793Z,94167.00
2024-03-04T08:08:23.798Z,94165.00
2024-03-04T08:09:23.853Z,94165.00
2024-03-04T08:10:23.937Z,94165.00
2024-03-04T08:11:23.974Z,94167.00
2024-03-04T08:12:24.008Z,94170.00
2024-03-04T08:13:24.151Z,94166.00
2024-03-04T08:14:24.175Z,94166.00
2024-03-04T08:15:24.207Z,94166.00
2024-03-04T08:16:24.336Z,94167.00
2024-03-04T08:17:26.457Z,94167.00
2024-03-04T08:18:24.473Z,94166.00
2024-03-04T08:19:24.374Z,94165.00
2024-03-04T08:20:32.389Z,94164.00
2024-03-04T08:21:25.371Z,94163.00
2024-03-04T08:22:24.484Z,94161.00
2024-03-04T08:23:24.337Z,94160.00
2024-03-04T08:24:24.325Z,94162.00
2024-03-04T08:25:24.350Z,94162.00
2024-03-04T08:26:24.344Z,94161.00
2024-03-04T08:27:24.332Z,94160.00
2024-03-04T08:28:32.142Z,94161.00
2024-03-04T08:29:25.479Z,94161.00
2024-03-04T08:30:24.430Z,94164.00
2024-03-04T08:31:24.398Z,94164.00
2024-03-04T08:32:24.389Z,94162.00
2024-03-04T08:33:24.327Z,94164.00
2024-03-04T08:34:24.422Z,94168.00
2024-03-04T08:35:24.508Z,94167.00
2024-03-04T08:36:24.376Z,94167.00
2024-03-04T08:37:24.370Z,94167.00
2024-03-04T08:38:24.395Z,94169.00
2024-03-04T08:39:24.479Z,94169.00
2024-03-04T08:40:24.560Z,94168.00
2024-03-04T08:41:24.604Z,94169.00
2024-03-04T08:42:24.617Z,94165.00
2024-03-04T08:43:24.679Z,94169.00
2024-03-04T08:44:24.689Z,94166.00
2024-03-04T08:45:24.726Z,94166.00
2024-03-04T08:46:24.808Z,94169.00
2024-03-04T08:47:24.888Z,94168.00
2024-03-04T08:48:24.898Z,94170.00
2024-03-04T08:49:25.003Z,94169.00
2024-03-04T08:50:24.974Z,94170.00
2024-03-04T08:51:25.005Z,94171.00
2024-03-04T08:52:25.033Z,94169.00
2024-03-04T08:53:25.081Z,94170.00
2024-03-04T08:54:25.047Z,94170.00
2024-03-04T08:55:25.109Z,94172.00
2024-03-04T08:56:25.068Z,94171.00
2024-03-04T08:57:25.097Z,94171.00
2024-03-04T08:58:25.123Z,94171.00
2024-03-04T08:59:25.108Z,94171.00
2024-03-04T09:00:25.122Z,94173.00
2024-03-04T09:01:25.190Z,94173.00
2024-03-04T09:02:25.148Z,94174.00
2024-03-04T09:03:25.156Z,94176.00
2024-03-04T09:04:25.232Z,94174.00
2024-03-04T09:05:25.205Z,94176.00
2024-03-04T09:06:25.195Z,94175.00
2024-03-04T09:07:25.231Z,94177.00
2024-03-04T09:08:25.241Z,94176.00
2024-03-04T09:09:25.240Z,94176.00
2024-03-04T09:10:25.334Z,94177.00
2024-03-04T09:11:25.295Z,94179.00
2024-03-04T09:12:25.282Z,94179.00
2024-03-04T09:13:25.313Z,94181.00
2024-03-04T09:14:25.305Z,94179.00
2024-03-04T09:15:25.328Z,94178.00
2024-03-04T09:16:25.362Z,94176.00
2024-03-04T09:17:25.363Z,94180.00
2024-03-04T09:18:25.358Z,94180.00
2024-03-04T09:19:25.454Z,94181.00
2024-03-04T09:20:25.371Z,94178.00
2024-03-04T09:21:25.406Z,94180.00
2024-03-04T09:22:25.456Z,94180.00
2024-03-04T09:23:25.440Z,94182.00
2024-03-04T09:24:25.426Z,94182.00
2024-03-04T09:25:25.520Z,94180.00
2024-03-04T09:26:25.469Z,94177.00
2024-03-04T09:27:25.529Z,94178.00
2024-03-04T09:28:25.560Z,94177.00
2024-03-04T09:29:25.545Z,94176.00
2024-03-04T09:30:25.539Z,94175.00
2024-03-04T09:31:25.596Z,94174.00
2024-03-04T09:32:25.580Z,94172.00
2024-03-04T09:33:25.612Z,94171.00
2024-03-04T09:34:25.615Z,94170.00
2024-03-04T09:35:25.573Z,94170.00
2024-03-04T09:36:25.612Z,94166.00
2024-03-04T09:37:25.648Z,94166.00
2024-03-04T09:38:25.637Z,94167.00
2024-03-04T09:39:25.744Z,94166.00
2024-03-04T09:40:25.788Z,94165.00
2024-03-04T09:41:25.786Z,94164.00
2024-03-04T09:42:25.820Z,94165.00
2024-03-04T09:43:25.872Z,94166.00
2024-03-04T09:44:25.856Z,94166.00
2024-03-04T09:45:25.927Z,94164.00
2024-03-04T09:46:25.994Z,94161.00
2024-03-04T09:47:26.000Z,94161.00
2024-03-04T09:48:26.015Z,94161.00
2024-03-04T09:49:26.161Z,94164.00
2024-03-04T09:50:26.148Z,94162.00
2024-03-04T09:51:26.143Z,94164.00
2024-03-04T09:52:26.219Z,94162.00
2024-03-04T09:53:26.202Z,94160.00
2024-03-04T09:54:26.221Z,94161.00
2024-03-04T09:55:26.346Z,94162.00
2024-03-04T09:56:26.229Z,94162.00
2024-03-04T09:57:26.280Z,94161.00
2024-03-04T09:58:26.375Z,94159.00
2024-03-04T09:59:26.411Z,94160.00
2024-03-04T10:00:26.491Z,94160.00
2024-03-04T10:01:26.701Z,94159.00
2024-03-04T10:02:26.519Z,94159.00
2024-03-04T10:03:26.577Z,94160.00
2024-03-04T10:04:26.607Z,94160.00
2024-03-04T10:05:26.655Z,94157.00
2024-03-04T10:06:26.611Z,94155.00
2024-03-04T10:07:26.647Z,94156.00
2024-03-04T10:08:26.600Z,94151.00
2024-03-04T10:09:26.625Z,94150.00
2024-03-04T10:10:26.676Z,94151.00
2024-03-04T10:11:27.003Z,94150.00
2024-03-04T10:12:26.694Z,94148.00
2024-03-04T10:13:26.871Z,94148.00
2024-03-04T10:14:26.681Z,94145.00
2024-03-04T10:15:26.734Z,94145.00
2024-03-04T10:16:26.767Z,94148.00
2024-03-04T10:17:26.778Z,94147.00
2024-03-04T10:18:26.763Z,94146.00
2024-03-04T10:19:26.921Z,94145.00
2024-03-04T10:20:26.834Z,94146.00
2024-03-04T10:21:26.820Z,94144.00
2024-03-04T10:22:26.838Z,94142.00
2024-03-04T10:23:26.858Z,94144.00
2024-03-04T10:24:27.111Z,94142.00
2024-03-04T10:25:26.902Z,94144.00
2024-03-04T10:26:26.897Z,94143.00
2024-03-04T10:27:26.906Z,94144.00
2024-03-04T10:28:26.986Z,94142.00
2024-03-04T10:29:26.937Z,94140.00
2024-03-04T10:30:27.024Z,94140.00
2024-03-04T10:31:26.994Z,94139.00
2024-03-04T10:32:27.084Z,94138.00
2024-03-04T10:33:26.984Z,94138.00
2024-03-04T10:34:26.986Z,94137.00
2024-03-04T10:35:27.128Z,94136.00
2024-03-04T10:36:27.021Z,94137.00
2024-03-04T10:37:27.126Z,94137.00
2024-03-04T10:38:26.991Z,94137.00
2024-03-04T10:39:27.010Z,94137.00
2024-03-04T10:40:27.061Z,94132.00
2024-03-04T10:41:27.057Z,94132.00
2024-03-04T10:42:27.063Z,94132.00
2024-03-04T10:43:27.156Z,94129.00
2024-03-04T10:44:27.443Z,94128.00
2024-03-04T10:45:27.175Z,94128.00
2024-03-04T10:46:27.184Z,94125.00
2024-03-04T10:47:27.218Z,94125.00
2024-03-04T10:48:27.296Z,94124.00
2024-03-04T10:49:27.402Z,94123.00
2024-03-04T10:50:27.364Z,94123.00
2024-03-04T10:51:27.390Z,94121.00
2024-03-04T10:52:27.423Z,94120.00
2024-03-04T10:53:27.408Z,94120.00
2024-03-04T10:54:27.431Z,94120.00
2024-03-04T10:55:27.461Z,94120.00
2024-03-04T10:56:27.460Z,94121.00
2024-03-04T10:57:27.713Z,94120.00
2024-03-04T10:58:27.493Z,94118.00
2024-03-04T10:59:27.494Z,94117.00
2024-03-04T11:00:27.960Z,94117.00
2024-03-04T11:01:27.617Z,94114.00
2024-03-04T11:02:27.535Z,94111.00
2024-03-04T11:03:27.574Z,94109.00
2024-03-04T11:04:27.678Z,94111.00
2024-03-04T11:05:27.610Z,94107.00
2024-03-04T11:06:27.844Z,94108.00
2024-03-04T11:07:27.683Z,94105.00
2024-03-04T11:08:27.621Z,94104.00
2024-03-04T11:09:27.629Z,94103.00
2024-03-04T11:10:27.702Z,94105.00
2024-03-04T11:11:27.793Z,94102.00
2024-03-04T11:12:27.675Z,94102.00
2024-03-04T11:13:27.814Z,94098.00
2024-03-04T11:14:27.702Z,94097.00
2024-03-04T11:15:27.775Z,94095.00
2024-03-04T11:16:27.843Z,94095.00
2024-03-04T11:17:27.861Z,94093.00
2024-03-04T11:18:27.957Z,94093.00
2024-03-04T11:19:28.024Z,94093.00
2024-03-04T11:20:28.082Z,94092.00
2024-03-04T11:21:28.215Z,94093.00
2024-03-04T11:22:28.245Z,94092.00
2024-03-04T11:23:28.321Z,94091.00
2024-03-04T11:24:28.326Z,94090.00
2024-03-04T11:25:28.430Z,94090.00
2024-03-04T11:26:28.451Z,94089.00
2024-03-04T11:27:28.540Z,94088.00
2024-03-04T11:28:28.708Z,94086.00
2024-03-04T11:29:28.656Z,94089.00
2024-03-04T11:30:28.723Z,94081.00
2024-03-04T11:31:28.906Z,94082.00
2024-03-04T11:32:28.890Z,94080.00
2024-03-04T11:33:29.101Z,94079.00
2024-03-04T11:34:29.013Z,94076.00
2024-03-04T11:35:28.978Z,94075.00
2024-03-04T11:36:29.094Z,94075.00
2024-03-04T11:37:29.142Z,94074.00
2024-03-04T11:38:29.175Z,94073.00
2024-03-04T11:39:29.288Z,94071.00
2024-03-04T11:40:29.262Z,94075.00
2024-03-04T11:41:29.285Z,94073.00
2024-03-04T11:42:29.272Z,94073.00
2024-03-04T11:43:29.330Z,94074.00
2024-03-04T11:44:29.305Z,94074.00
2024-03-04T11:45:29.334Z,94071.00